McComb, MS (39648)

5:46 AM CDT on September 04, 2015 (GMT -0500)
Pinehurst | | Change Station
CLOSE
Current Station
Personal Weather Station
Location: McComb, MS
Elevation: 442 ft
Nearby Weather Stations

Elev 442 ft 31.21 °N, 90.50 °W | Updated 14 seconds ago

Overcast
Overcast
72.6 °F
Feels Like 72.6 °F
N
0.0
Wind Variable Wind from South
Gusts 11.0 mph

Today
High -- | Low -- °F
--% Chance of Precip.
Yesterday
High -- | Low -- °F
Precip. -- in
6:39 AM 7:21 PM
Waning Gibbous, 61% visible
Pressure 29.98 in
Visibility 3.0 miles
Clouds Overcast 400 ft
Dew Point 72 °F
Humidity 99%
Rainfall 0.00 in
Snow Depth Not available.
UV 0.0 out of 12
Pollen 7.90 out of 12
Air Quality Not available.
Flu Activity Not available.
SPECI KMCB 041008Z AUTO 00000KT 3SM BR OVC004 23/23 A2998 RMK AO2 T02280228
Pressure 29.98 in
Visibility 3.0 miles
Clouds Overcast 400 ft
Dew Point 72 °F
Humidity 99%
Rainfall 0.00 in
Snow Depth Not available.
UV 0.0 out of 12
Pollen 7.90 out of 12
Air Quality Not available.
Flu Activity Not available.
SPECI KMCB 041008Z AUTO 00000KT 3SM BR OVC004 23/23 A2998 RMK AO2 T02280228

10-Day Weather Forecast

×

Almanac

Astronomy

Sep. 04, 2015 Rise Set
Actual Time
Civil Twilight
Nautical Twilight
Astronomical Twilight
Moon
Length of Visible Light
Length of Day
Tomorrow will be .
, % of the Moon is Illuminated

Today's Extremes

State Highs State Lows

Community

WunderPhotos

Upload Photos

1,852,146 photos uploaded!

WunderBlogs® & News

Nearby

Air Quality

  Air Quality AQ Index Pollutant
Not available.

Snow Depth

Station Depth Elevation

Earthquake Activity

City Distance Mag. Time & Date
Minimum magnitude displayed is 2.5.

Coastal Water Temperatures

Place Temperature

Stations

Nearby Weather Stations

Station Location Temp. Windchill Dew Point Humidity Wind Precip. Elev Updated Type